createdAt,value
2022-12-05T00:02:05.850Z,75.80
2022-12-05T00:05:47.565Z,75.80
2022-12-05T00:09:29.207Z,75.80
2022-12-05T00:13:10.872Z,75.80
2022-12-05T00:16:52.578Z,75.60
2022-12-05T00:20:34.437Z,75.80
2022-12-05T00:24:16.163Z,75.60
2022-12-05T00:27:58.903Z,75.60
2022-12-05T00:31:40.851Z,75.60
2022-12-05T00:35:22.574Z,75.50
2022-12-05T00:39:09.656Z,75.60
2022-12-05T00:42:52.563Z,75.50
2022-12-05T00:46:34.877Z,75.70
2022-12-05T00:50:16.761Z,75.70
2022-12-05T00:53:59.171Z,75.60
2022-12-05T00:57:41.031Z,75.50
2022-12-05T01:01:33.190Z,75.70
2022-12-05T01:05:14.954Z,75.70
2022-12-05T01:08:56.977Z,75.70
2022-12-05T01:12:38.620Z,75.70
2022-12-05T01:16:21.622Z,75.80
2022-12-05T01:20:05.828Z,75.80
2022-12-05T01:23:47.580Z,75.90
2022-12-05T01:27:49.144Z,75.80
2022-12-05T01:31:32.000Z,75.80
2022-12-05T01:35:13.708Z,75.80
2022-12-05T01:38:55.427Z,75.60
2022-12-05T01:42:37.072Z,75.90
2022-12-05T01:46:18.762Z,75.70
2022-12-05T01:50:19.254Z,75.70
2022-12-05T01:54:00.866Z,75.70
2022-12-05T01:57:42.651Z,75.90
2022-12-05T02:01:24.480Z,75.90
2022-12-05T02:05:11.460Z,76.50
2022-12-05T02:08:53.342Z,76.00
2022-12-05T02:12:35.026Z,76.00
2022-12-05T02:16:32.097Z,76.00
2022-12-05T02:20:27.533Z,75.90
2022-12-05T02:24:12.407Z,75.90
2022-12-05T02:28:08.490Z,75.90
2022-12-05T02:31:56.002Z,76.20
2022-12-05T02:35:40.811Z,76.10
2022-12-05T02:39:27.554Z,76.20
2022-12-05T02:43:30.654Z,76.40
2022-12-05T02:47:12.906Z,76.40
2022-12-05T02:50:54.890Z,76.40
2022-12-05T02:54:37.509Z,76.50
2022-12-05T02:58:28.067Z,76.70
2022-12-05T03:02:20.257Z,76.70
2022-12-05T03:06:08.281Z,76.80
2022-12-05T03:09:51.443Z,76.90
2022-12-05T03:13:39.280Z,77.00
2022-12-05T03:17:32.265Z,77.00
2022-12-05T03:21:26.231Z,77.10
2022-12-05T03:25:07.922Z,77.20
2022-12-05T03:29:11.140Z,77.20
2022-12-05T03:33:02.093Z,77.90
2022-12-05T03:36:44.455Z,77.30
2022-12-05T03:40:27.920Z,77.40
2022-12-05T03:44:13.202Z,77.50
2022-12-05T03:48:00.642Z,77.60
2022-12-05T03:51:43.602Z,77.60
2022-12-05T03:55:26.647Z,77.70
2022-12-05T03:59:17.227Z,77.90
2022-12-05T04:03:09.549Z,77.80
2022-12-05T04:06:51.235Z,77.90
2022-12-05T04:10:48.685Z,78.10
2022-12-05T04:14:34.054Z,78.10
2022-12-05T04:18:17.680Z,78.10
2022-12-05T04:21:59.311Z,78.30
2022-12-05T04:25:59.238Z,78.20
2022-12-05T04:30:01.134Z,78.30
2022-12-05T04:33:50.560Z,78.30
2022-12-05T04:37:34.647Z,78.40
2022-12-05T04:41:17.567Z,78.40
2022-12-05T04:45:00.514Z,78.50
2022-12-05T04:48:42.815Z,78.50
2022-12-05T04:52:24.573Z,78.50
2022-12-05T04:56:06.305Z,78.60
2022-12-05T04:59:51.056Z,78.50
2022-12-05T05:03:38.819Z,79.10
2022-12-05T05:07:20.497Z,78.70
2022-12-05T05:11:18.593Z,78.70
2022-12-05T05:15:00.215Z,78.80
2022-12-05T05:18:47.204Z,78.70
2022-12-05T05:22:28.830Z,78.80
2022-12-05T05:26:10.503Z,78.70
2022-12-05T05:29:52.163Z,78.80
2022-12-05T05:33:33.971Z,79.00
2022-12-05T05:37:15.610Z,79.10
2022-12-05T05:40:57.254Z,79.10
2022-12-05T05:44:38.926Z,79.10
2022-12-05T05:48:21.629Z,79.10
2022-12-05T05:52:03.398Z,79.10
2022-12-05T05:55:45.073Z,79.30
2022-12-05T05:59:26.953Z,79.30
2022-12-05T06:03:08.769Z,79.40
2022-12-05T06:06:50.471Z,79.40
2022-12-05T06:10:32.195Z,79.70
2022-12-05T06:14:13.829Z,79.40
2022-12-05T06:17:56.511Z,79.30
2022-12-05T06:21:38.195Z,79.30
2022-12-05T06:25:19.846Z,79.40
2022-12-05T06:29:01.603Z,79.40
2022-12-05T06:32:43.250Z,79.40
2022-12-05T06:36:25.137Z,79.60
2022-12-05T06:40:08.019Z,79.50
2022-12-05T06:43:49.731Z,79.60
2022-12-05T06:47:31.435Z,79.60
2022-12-05T06:51:13.703Z,79.50
2022-12-05T06:54:55.408Z,79.40
2022-12-05T06:58:56.924Z,79.50
2022-12-05T07:02:38.661Z,79.50
2022-12-05T07:06:20.350Z,79.70
2022-12-05T07:10:03.607Z,79.50
2022-12-05T07:13:45.261Z,79.60
2022-12-05T07:17:26.899Z,79.50
2022-12-05T07:21:13.196Z,79.70
2022-12-05T07:24:55.451Z,79.70
2022-12-05T07:28:39.112Z,79.80
2022-12-05T07:32:21.132Z,79.70
2022-12-05T07:36:03.599Z,79.80
2022-12-05T07:39:46.522Z,80.10
2022-12-05T07:43:28.179Z,80.30
2022-12-05T07:47:09.951Z,80.30
2022-12-05T07:50:51.736Z,80.10
2022-12-05T07:54:33.483Z,80.20
2022-12-05T07:58:15.334Z,80.10
2022-12-05T08:01:57.108Z,80.10
2022-12-05T08:05:38.833Z,80.00
2022-12-05T08:09:22.596Z,80.00
2022-12-05T08:13:04.282Z,80.20
2022-12-05T08:16:45.948Z,80.00
2022-12-05T08:20:28.927Z,80.00
2022-12-05T08:24:10.736Z,79.90
2022-12-05T08:27:52.429Z,80.00
2022-12-05T08:31:34.882Z,79.90
2022-12-05T08:35:16.829Z,79.90
2022-12-05T08:39:03.003Z,79.80
2022-12-05T08:42:44.712Z,79.90
2022-12-05T08:46:26.521Z,79.70
2022-12-05T08:50:08.671Z,79.70
2022-12-05T08:53:50.350Z,79.70
2022-12-05T08:57:51.123Z,79.70
2022-12-05T09:01:33.646Z,79.60
2022-12-05T09:05:27.627Z,79.60
2022-12-05T09:09:11.662Z,79.60
2022-12-05T09:12:53.451Z,79.60
2022-12-05T09:16:38.557Z,79.50
2022-12-05T09:20:23.829Z,79.50
2022-12-05T09:24:05.550Z,79.40
2022-12-05T09:27:48.359Z,79.40
2022-12-05T09:31:30.734Z,79.40
2022-12-05T09:35:12.468Z,79.30
2022-12-05T09:38:55.293Z,79.30
2022-12-05T09:42:49.182Z,79.30
2022-12-05T09:46:51.129Z,79.30
2022-12-05T09:50:39.049Z,79.20
2022-12-05T09:54:20.686Z,79.10
2022-12-05T09:58:03.623Z,79.10
2022-12-05T10:01:52.057Z,79.10
2022-12-05T10:05:44.150Z,79.60
2022-12-05T10:09:25.922Z,79.00
2022-12-05T10:13:14.945Z,78.90
2022-12-05T10:16:57.010Z,78.80
2022-12-05T10:20:45.095Z,78.80
2022-12-05T10:24:29.518Z,78.70
2022-12-05T10:28:16.362Z,78.60
2022-12-05T10:32:02.775Z,78.60
2022-12-05T10:35:44.495Z,78.50
2022-12-05T10:39:27.462Z,78.40
2022-12-05T10:51:42.554Z,78.40
2022-12-05T10:55:24.239Z,78.20
2022-12-05T10:59:06.857Z,78.20
2022-12-05T11:02:48.968Z,78.10
2022-12-05T11:06:31.453Z,78.00
2022-12-05T11:10:27.494Z,77.90
2022-12-05T11:14:25.078Z,78.00
2022-12-05T11:18:36.579Z,77.80
2022-12-05T11:22:18.289Z,77.80
2022-12-05T11:26:00.053Z,77.60
2022-12-05T11:29:42.095Z,77.70
2022-12-05T11:33:24.109Z,77.80
2022-12-05T11:37:13.577Z,77.80
2022-12-05T11:40:55.446Z,77.70
2022-12-05T11:44:55.948Z,77.40
2022-12-05T11:48:45.498Z,77.20
2022-12-05T11:52:40.600Z,76.90
2022-12-05T11:56:41.557Z,77.00
2022-12-05T12:00:24.949Z,77.20
2022-12-05T12:04:16.354Z,77.30
2022-12-05T12:08:17.125Z,77.40
2022-12-05T12:12:04.203Z,77.40
2022-12-05T12:15:46.827Z,77.10
2022-12-05T12:19:31.442Z,77.30
2022-12-05T12:23:17.459Z,77.40
2022-12-05T12:27:05.962Z,77.30
2022-12-05T12:30:48.103Z,77.00
2022-12-05T12:34:41.784Z,76.40
2022-12-05T12:38:29.615Z,76.50
2022-12-05T12:42:17.383Z,76.70
2022-12-05T12:46:10.912Z,76.50
2022-12-05T12:49:56.177Z,76.40
2022-12-05T12:53:41.180Z,76.10
2022-12-05T12:57:26.745Z,76.30
2022-12-05T13:01:27.324Z,76.30
2022-12-05T13:05:29.370Z,76.50
2022-12-05T13:09:22.279Z,76.10
2022-12-05T13:13:04.163Z,75.60
2022-12-05T13:16:50.400Z,75.80
2022-12-05T13:20:32.899Z,75.80
2022-12-05T13:24:14.639Z,76.00
2022-12-05T13:28:03.884Z,75.80
2022-12-05T13:31:45.655Z,75.90
2022-12-05T13:35:55.311Z,75.30
2022-12-05T13:39:55.734Z,75.40
2022-12-05T13:43:49.423Z,75.50
2022-12-05T13:47:38.406Z,75.60
2022-12-05T13:51:24.318Z,75.50
2022-12-05T13:55:33.904Z,75.60
2022-12-05T13:59:36.544Z,76.00
2022-12-05T14:03:38.208Z,75.50
2022-12-05T14:07:39.813Z,75.50
2022-12-05T14:11:21.534Z,75.80
2022-12-05T14:15:04.137Z,75.90
2022-12-05T14:18:51.156Z,75.60
2022-12-05T14:22:37.234Z,75.20
2022-12-05T14:26:18.868Z,75.90
2022-12-05T14:30:04.014Z,75.60
2022-12-05T14:33:45.633Z,75.70
2022-12-05T14:37:31.853Z,75.70
2022-12-05T14:41:22.127Z,75.60
2022-12-05T14:45:17.482Z,75.20
2022-12-05T14:48:59.477Z,75.50
2022-12-05T14:52:41.334Z,75.40
2022-12-05T14:56:26.008Z,75.50
2022-12-05T15:00:08.269Z,75.50
2022-12-05T15:04:02.660Z,75.30
2022-12-05T15:07:44.826Z,75.50
2022-12-05T15:11:29.371Z,75.40
2022-12-05T15:15:11.114Z,75.30
2022-12-05T15:18:53.514Z,75.30
2022-12-05T15:22:35.513Z,75.60
2022-12-05T15:26:45.995Z,75.40
2022-12-05T15:30:26.355Z,75.70
2022-12-05T15:34:28.251Z,75.80
2022-12-05T15:38:16.100Z,75.60
2022-12-05T15:41:58.022Z,75.90
2022-12-05T15:45:39.690Z,75.50
2022-12-05T15:49:25.556Z,75.90
2022-12-05T15:53:11.880Z,75.70
2022-12-05T15:56:55.702Z,75.80
2022-12-05T16:00:39.084Z,75.50
2022-12-05T16:04:23.715Z,75.80
2022-12-05T16:08:08.559Z,75.90
2022-12-05T16:11:53.862Z,75.90
2022-12-05T16:15:35.582Z,76.20
2022-12-05T16:19:18.227Z,76.10
2022-12-05T16:23:01.261Z,76.10
2022-12-05T16:26:42.951Z,76.20
2022-12-05T16:30:25.343Z,76.30
2022-12-05T16:34:07.630Z,76.30
2022-12-05T16:37:49.657Z,76.40
2022-12-05T16:41:35.195Z,76.30
2022-12-05T16:45:37.514Z,76.20
2022-12-05T16:49:20.482Z,76.40
2022-12-05T16:53:03.052Z,76.40
2022-12-05T16:56:44.673Z,76.50
2022-12-05T17:00:26.359Z,76.50
2022-12-05T17:04:11.298Z,76.40
2022-12-05T17:07:54.323Z,76.40
2022-12-05T17:11:38.356Z,76.50
2022-12-05T17:15:20.169Z,76.50
2022-12-05T17:19:21.115Z,76.60
2022-12-05T17:23:05.846Z,76.50
2022-12-05T17:26:48.966Z,76.60
2022-12-05T17:30:34.271Z,76.60
2022-12-05T17:34:16.729Z,76.60
2022-12-05T17:38:00.603Z,76.70
2022-12-05T17:41:42.432Z,76.80
2022-12-05T17:45:24.282Z,76.80
2022-12-05T17:49:05.940Z,76.90
2022-12-05T17:52:48.271Z,76.90
2022-12-05T17:56:29.902Z,76.90
2022-12-05T18:00:12.361Z,77.10
2022-12-05T18:03:54.110Z,77.10
2022-12-05T18:07:38.729Z,77.10
2022-12-05T18:11:20.415Z,77.20
2022-12-05T18:15:02.050Z,77.20
2022-12-05T18:18:44.756Z,77.20
2022-12-05T18:22:26.583Z,77.30
2022-12-05T18:26:08.705Z,77.30
2022-12-05T18:29:50.779Z,77.30
2022-12-05T18:33:32.434Z,77.40
2022-12-05T18:37:14.075Z,77.50
2022-12-05T18:41:01.603Z,77.50
2022-12-05T18:44:43.272Z,77.50
2022-12-05T18:48:38.792Z,77.60
2022-12-05T18:52:21.582Z,77.70
2022-12-05T18:56:23.804Z,77.80
2022-12-05T19:00:08.044Z,77.80
2022-12-05T19:03:50.383Z,77.90
2022-12-05T19:07:32.163Z,78.00
2022-12-05T19:11:14.349Z,78.10
2022-12-05T19:14:56.032Z,78.10
2022-12-05T19:18:38.724Z,78.30
2022-12-05T19:22:20.727Z,78.40
2022-12-05T19:26:02.947Z,78.40
2022-12-05T19:29:46.911Z,78.50
2022-12-05T19:33:32.115Z,78.50
2022-12-05T19:37:13.758Z,78.50
2022-12-05T19:40:57.154Z,78.60
2022-12-05T19:44:38.794Z,78.50
2022-12-05T19:48:22.725Z,79.30
2022-12-05T19:52:04.722Z,78.70
2022-12-05T19:55:46.346Z,78.60
2022-12-05T19:59:29.351Z,78.70
2022-12-05T20:03:12.406Z,78.80
2022-12-05T20:06:57.185Z,78.80
2022-12-05T20:14:45.087Z,79.00
2022-12-05T20:18:29.134Z,78.80
2022-12-05T20:22:10.869Z,78.80
2022-12-05T20:25:52.667Z,78.80
2022-12-05T20:29:35.695Z,79.50
2022-12-05T20:33:17.342Z,78.90
2022-12-05T20:36:59.050Z,78.90
2022-12-05T20:40:43.803Z,78.80
2022-12-05T20:44:25.467Z,79.00
2022-12-05T20:48:09.267Z,78.90
2022-12-05T20:51:50.964Z,78.80
2022-12-05T20:55:32.672Z,78.80
2022-12-05T20:59:16.737Z,78.90
2022-12-05T21:02:58.521Z,78.90
2022-12-05T21:06:41.350Z,78.80
2022-12-05T21:10:23.141Z,78.90
2022-12-05T21:14:05.147Z,79.10
2022-12-05T21:18:07.926Z,79.00
2022-12-05T21:21:50.527Z,79.20
2022-12-05T21:25:32.650Z,79.30
2022-12-05T21:29:16.503Z,79.20
2022-12-05T21:32:58.131Z,79.10
2022-12-05T21:36:39.777Z,79.30
2022-12-05T21:40:21.630Z,79.20
2022-12-05T21:44:03.365Z,79.10
2022-12-05T21:47:47.347Z,79.00
2022-12-05T21:51:29.094Z,79.10
2022-12-05T21:55:10.730Z,79.30
2022-12-05T21:58:53.660Z,79.20
2022-12-05T22:02:35.420Z,79.20
2022-12-05T22:06:17.177Z,79.30
2022-12-05T22:10:19.828Z,79.20
2022-12-05T22:14:01.511Z,79.20
2022-12-05T22:17:44.451Z,79.20
2022-12-05T22:21:26.111Z,79.20
2022-12-05T22:25:07.991Z,79.20
2022-12-05T22:28:50.293Z,79.20
2022-12-05T22:32:31.940Z,79.30
2022-12-05T22:36:14.471Z,79.20
2022-12-05T22:39:56.753Z,79.10
2022-12-05T22:43:38.720Z,79.20
2022-12-05T22:47:20.347Z,79.10
2022-12-05T22:51:02.056Z,79.20
2022-12-05T22:54:43.688Z,79.10
2022-12-05T22:58:27.555Z,79.10
2022-12-05T23:02:09.194Z,79.20
2022-12-05T23:05:50.845Z,79.10
2022-12-05T23:09:33.594Z,79.10
2022-12-05T23:13:15.277Z,79.10
2022-12-05T23:16:56.920Z,79.10
2022-12-05T23:20:38.723Z,79.00
2022-12-05T23:24:20.464Z,79.00
2022-12-05T23:28:04.218Z,79.00
2022-12-05T23:31:45.917Z,79.00
2022-12-05T23:35:27.614Z,79.70
2022-12-05T23:39:10.502Z,78.90
2022-12-05T23:42:52.164Z,78.90
2022-12-05T23:46:33.954Z,79.00
2022-12-05T23:50:16.803Z,79.00
2022-12-05T23:53:59.211Z,79.50
2022-12-05T23:58:00.854Z,78.90
